createdAt,value
2018-06-11T00:00:45.345Z,14.90
2018-06-11T00:03:16.112Z,14.90
2018-06-11T00:05:46.236Z,15.10
2018-06-11T00:08:16.327Z,15.10
2018-06-11T00:10:46.720Z,15.10
2018-06-11T00:13:17.122Z,15.20
2018-06-11T00:15:48.523Z,15.30
2018-06-11T00:18:18.784Z,15.30
2018-06-11T00:20:48.914Z,15.40
2018-06-11T00:23:19.578Z,15.40
2018-06-11T00:25:49.660Z,15.50
2018-06-11T00:28:19.787Z,15.50
2018-06-11T00:30:50.534Z,15.50
2018-06-11T00:33:21.676Z,15.50
2018-06-11T00:35:52.116Z,15.60
2018-06-11T00:38:22.244Z,15.70
2018-06-11T00:40:52.489Z,15.70
2018-06-11T00:43:22.782Z,15.80
2018-06-11T00:45:52.990Z,15.80
2018-06-11T00:48:23.054Z,15.90
2018-06-11T00:50:53.618Z,15.90
2018-06-11T00:53:23.738Z,15.90
2018-06-11T00:56:08.201Z,16.00
2018-06-11T00:58:39.206Z,16.00
2018-06-11T01:01:09.348Z,16.00
2018-06-11T01:03:39.605Z,16.00
2018-06-11T01:06:09.723Z,16.00
2018-06-11T01:08:40.756Z,15.90
2018-06-11T01:11:11.573Z,15.90
2018-06-11T01:13:42.587Z,15.80
2018-06-11T01:16:13.094Z,15.80
2018-06-11T01:18:43.311Z,15.70
2018-06-11T01:21:13.874Z,15.70
2018-06-11T01:23:44.088Z,15.70
2018-06-11T01:26:14.148Z,15.60
2018-06-11T01:28:44.472Z,15.60
2018-06-11T01:31:14.801Z,15.50
2018-06-11T01:33:44.980Z,15.50
2018-06-11T01:36:15.680Z,15.40
2018-06-11T01:38:45.921Z,15.40
2018-06-11T01:41:16.263Z,15.40
2018-06-11T01:43:47.041Z,15.40
2018-06-11T01:46:17.270Z,15.40
2018-06-11T01:48:47.401Z,15.50
2018-06-11T01:51:18.041Z,15.60
2018-06-11T01:53:48.177Z,15.60
2018-06-11T01:56:18.785Z,15.60
2018-06-11T01:58:49.344Z,15.60
2018-06-11T02:01:19.433Z,15.50
2018-06-11T02:03:50.212Z,15.50
2018-06-11T02:06:20.590Z,15.40
2018-06-11T02:08:50.910Z,15.30
2018-06-11T02:11:21.351Z,15.30
2018-06-11T02:13:51.424Z,15.20
2018-06-11T02:16:21.507Z,15.20
2018-06-11T02:18:51.672Z,15.10
2018-06-11T02:21:21.888Z,15.10
2018-06-11T02:23:52.344Z,15.10
2018-06-11T02:26:22.639Z,15.00
2018-06-11T02:28:52.890Z,15.00
2018-06-11T02:31:23.917Z,15.00
2018-06-11T02:33:54.080Z,15.00
2018-06-11T02:36:24.384Z,15.00
2018-06-11T02:38:54.907Z,15.00
2018-06-11T02:41:24.994Z,15.00
2018-06-11T02:43:55.377Z,15.00
2018-06-11T02:46:25.569Z,15.00
2018-06-11T02:48:55.651Z,15.00
2018-06-11T02:51:26.170Z,14.90
2018-06-11T02:53:57.800Z,14.90
2018-06-11T02:56:27.948Z,14.90
2018-06-11T02:58:58.309Z,14.90
2018-06-11T03:01:28.568Z,14.90
2018-06-11T03:03:59.222Z,15.00
2018-06-11T03:06:29.622Z,15.00
2018-06-11T03:09:00.288Z,15.00
2018-06-11T03:11:30.361Z,15.10
2018-06-11T03:14:00.625Z,15.00
2018-06-11T03:16:31.121Z,15.00
2018-06-11T03:19:01.878Z,15.10
2018-06-11T03:21:33.487Z,15.10
2018-06-11T03:24:03.841Z,15.20
2018-06-11T03:26:34.329Z,15.30
2018-06-11T03:29:05.360Z,15.30
2018-06-11T03:31:35.882Z,15.40
2018-06-11T03:34:06.983Z,15.40
2018-06-11T03:36:37.002Z,15.40
2018-06-11T03:39:10.132Z,15.50
2018-06-11T03:41:40.324Z,15.60
2018-06-11T03:44:10.346Z,15.70
2018-06-11T03:46:40.601Z,15.70
2018-06-11T03:49:10.897Z,15.80
2018-06-11T03:51:41.569Z,15.90
2018-06-11T03:54:12.158Z,15.90
2018-06-11T03:56:42.257Z,16.00
2018-06-11T03:59:12.339Z,16.00
2018-06-11T04:01:42.339Z,16.10
2018-06-11T04:04:12.710Z,16.10
2018-06-11T04:06:42.828Z,16.10
2018-06-11T04:09:13.578Z,16.10
2018-06-11T04:11:43.941Z,16.10
2018-06-11T04:14:14.088Z,16.10
2018-06-11T04:16:44.156Z,16.10
2018-06-11T04:19:14.391Z,16.10
2018-06-11T04:21:44.409Z,16.10
2018-06-11T04:24:14.520Z,16.20
2018-06-11T04:26:44.600Z,16.20
2018-06-11T04:29:15.293Z,16.30
2018-06-11T04:31:45.307Z,16.40
2018-06-11T04:34:15.918Z,16.60
2018-06-11T04:36:46.601Z,16.80
2018-06-11T04:39:17.452Z,16.90
2018-06-11T04:41:48.247Z,17.10
2018-06-11T04:44:19.419Z,17.20
2018-06-11T04:46:49.984Z,17.40
2018-06-11T04:49:20.660Z,17.50
2018-06-11T04:51:51.310Z,17.60
2018-06-11T04:54:21.922Z,17.60
2018-06-11T04:56:52.713Z,17.60
2018-06-11T04:59:23.794Z,17.60
2018-06-11T05:01:54.356Z,17.80
2018-06-11T05:04:24.978Z,18.00
2018-06-11T05:06:55.743Z,18.30
2018-06-11T05:09:26.406Z,18.70
2018-06-11T05:11:56.950Z,19.00
2018-06-11T05:14:27.609Z,19.20
2018-06-11T05:16:58.449Z,19.50
2018-06-11T05:19:28.921Z,19.80
2018-06-11T05:21:59.557Z,20.20
2018-06-11T05:24:30.441Z,20.60
2018-06-11T05:27:01.073Z,20.90
2018-06-11T05:29:31.685Z,21.10
2018-06-11T05:32:02.555Z,21.20
2018-06-11T05:34:33.321Z,21.50
2018-06-11T05:37:04.014Z,21.80
2018-06-11T05:39:34.723Z,22.10
2018-06-11T05:42:05.997Z,22.40
2018-06-11T05:44:37.103Z,22.60
2018-06-11T05:47:07.628Z,22.90
2018-06-11T05:49:38.643Z,22.60
2018-06-11T05:52:09.203Z,22.80
2018-06-11T05:54:39.996Z,23.10
2018-06-11T05:57:10.592Z,23.30
2018-06-11T05:59:41.353Z,23.20
2018-06-11T06:02:11.914Z,23.20
2018-06-11T06:04:42.447Z,23.00
2018-06-11T06:07:13.013Z,22.80
2018-06-11T06:09:43.709Z,22.80
2018-06-11T06:12:14.510Z,22.70
2018-06-11T06:14:45.163Z,22.70
2018-06-11T06:17:15.867Z,22.90
2018-06-11T06:19:46.920Z,22.70
2018-06-11T06:22:17.874Z,22.80
2018-06-11T06:24:48.571Z,23.30
2018-06-11T06:27:18.845Z,23.80
2018-06-11T06:29:49.352Z,24.30
2018-06-11T06:32:20.423Z,24.50
2018-06-11T06:34:51.149Z,24.40
2018-06-11T06:37:21.863Z,24.50
2018-06-11T06:39:52.105Z,24.50
2018-06-11T06:42:22.482Z,24.50
2018-06-11T06:44:53.014Z,24.30
2018-06-11T06:47:23.373Z,24.20
2018-06-11T06:49:53.932Z,23.90
2018-06-11T06:52:24.611Z,23.80
2018-06-11T06:54:55.204Z,23.70
2018-06-11T06:57:25.803Z,23.40
2018-06-11T06:59:56.324Z,23.10
2018-06-11T07:02:27.322Z,22.80
2018-06-11T07:04:57.871Z,22.60
2018-06-11T07:07:28.473Z,22.60
2018-06-11T07:09:59.253Z,22.60
2018-06-11T07:12:29.939Z,22.70
2018-06-11T07:15:00.706Z,22.80
2018-06-11T07:17:31.447Z,22.90
2018-06-11T07:20:02.108Z,23.00
2018-06-11T07:22:32.603Z,22.90
2018-06-11T07:25:03.207Z,23.00
2018-06-11T07:27:34.027Z,23.00
2018-06-11T07:30:05.322Z,23.00
2018-06-11T07:32:36.119Z,23.00
2018-06-11T07:35:06.896Z,23.00
2018-06-11T07:37:37.576Z,22.90
2018-06-11T07:40:08.253Z,22.90
2018-06-11T07:42:38.820Z,22.80
2018-06-11T07:45:09.363Z,22.50
2018-06-11T07:47:39.865Z,22.40
2018-06-11T07:50:10.839Z,22.30
2018-06-11T07:52:41.811Z,22.40
2018-06-11T07:55:12.350Z,22.40
2018-06-11T07:57:42.887Z,22.40
2018-06-11T08:00:15.045Z,22.50
2018-06-11T08:02:45.898Z,22.30
2018-06-11T08:05:16.599Z,22.20
2018-06-11T08:07:47.828Z,22.10
2018-06-11T08:10:18.432Z,22.20
2018-06-11T08:12:48.998Z,22.20
2018-06-11T08:15:19.501Z,22.10
2018-06-11T08:17:50.199Z,22.20
2018-06-11T08:20:21.624Z,22.30
2018-06-11T08:22:52.431Z,22.30
2018-06-11T08:25:24.937Z,22.60
2018-06-11T08:27:56.199Z,22.90
2018-06-11T08:30:29.473Z,23.20
2018-06-11T08:33:00.843Z,23.50
2018-06-11T08:35:31.751Z,23.70
2018-06-11T08:38:02.519Z,24.20
2018-06-11T08:40:33.169Z,24.50
2018-06-11T08:43:03.979Z,24.80
2018-06-11T08:45:34.556Z,25.00
2018-06-11T08:48:07.438Z,25.30
2018-06-11T08:53:15.510Z,26.00
2018-06-11T08:55:46.184Z,26.30
2018-06-11T08:58:16.326Z,26.50
2018-06-11T09:00:46.591Z,26.60
2018-06-11T09:03:16.979Z,26.50
2018-06-11T09:05:47.501Z,26.50
2018-06-11T09:08:17.847Z,26.70
2018-06-11T09:10:48.030Z,26.90
2018-06-11T09:13:18.772Z,26.60
2018-06-11T09:15:49.354Z,26.00
2018-06-11T09:18:20.134Z,25.50
2018-06-11T09:20:51.281Z,25.10
2018-06-11T09:23:21.856Z,24.70
2018-06-11T09:25:52.702Z,24.50
2018-06-11T09:28:23.599Z,24.50
2018-06-11T09:30:54.218Z,24.50
2018-06-11T09:33:25.224Z,24.60
2018-06-11T09:35:55.824Z,24.70
2018-06-11T09:38:26.343Z,24.90
2018-06-11T09:40:56.933Z,25.30
2018-06-11T09:43:27.283Z,25.80
2018-06-11T09:45:57.579Z,26.40
2018-06-11T09:48:27.873Z,26.60
2018-06-11T09:50:58.335Z,26.70
2018-06-11T09:53:28.780Z,27.40
2018-06-11T09:55:59.479Z,28.00
2018-06-11T09:58:29.755Z,28.30
2018-06-11T10:01:00.006Z,28.40
2018-06-11T10:03:30.525Z,28.30
2018-06-11T10:06:00.899Z,28.60
2018-06-11T10:08:31.445Z,28.80
2018-06-11T10:11:01.642Z,28.80
2018-06-11T10:13:32.419Z,28.60
2018-06-11T10:16:03.744Z,28.10
2018-06-11T10:18:34.247Z,27.50
2018-06-11T10:21:04.513Z,26.90
2018-06-11T10:23:35.119Z,26.30
2018-06-11T10:26:05.708Z,25.90
2018-06-11T10:28:36.571Z,25.50
2018-06-11T10:31:07.268Z,24.90
2018-06-11T10:33:38.181Z,24.20
2018-06-11T10:36:08.812Z,23.20
2018-06-11T10:38:39.688Z,22.40
2018-06-11T10:41:10.381Z,21.80
2018-06-11T10:43:41.740Z,21.30
2018-06-11T10:46:12.672Z,21.10
2018-06-11T10:48:43.257Z,20.80
2018-06-11T10:51:14.271Z,20.20
2018-06-11T10:53:45.817Z,19.50
2018-06-11T10:56:16.877Z,18.70
2018-06-11T10:58:48.359Z,18.00
2018-06-11T11:01:19.275Z,17.50
2018-06-11T11:03:50.189Z,17.10
2018-06-11T11:06:20.950Z,16.90
2018-06-11T11:08:51.750Z,16.90
2018-06-11T11:11:22.604Z,16.70
2018-06-11T11:13:53.564Z,16.60
2018-06-11T11:16:24.337Z,16.50
2018-06-11T11:18:54.469Z,16.30
2018-06-11T11:21:24.629Z,16.20
2018-06-11T11:23:55.692Z,16.30
2018-06-11T11:26:25.960Z,16.40
2018-06-11T11:28:56.226Z,16.50
2018-06-11T11:31:26.604Z,16.60
2018-06-11T11:33:56.775Z,16.70
2018-06-11T11:36:26.994Z,16.70
2018-06-11T11:38:57.204Z,16.70
2018-06-11T11:41:27.392Z,16.70
2018-06-11T11:43:58.479Z,16.70
2018-06-11T11:46:29.414Z,16.70
2018-06-11T11:48:59.540Z,16.70
2018-06-11T11:51:30.582Z,16.90
2018-06-11T11:54:00.827Z,17.10
2018-06-11T11:56:32.224Z,17.40
2018-06-11T11:59:03.236Z,17.50
2018-06-11T12:01:34.601Z,17.50
2018-06-11T12:04:11.917Z,17.40
2018-06-11T12:06:43.460Z,17.40
2018-06-11T12:09:14.619Z,17.30
2018-06-11T12:11:45.842Z,17.40
2018-06-11T12:14:17.688Z,17.40
2018-06-11T12:16:50.907Z,17.50
2018-06-11T12:19:21.879Z,17.50
2018-06-11T12:21:53.638Z,17.40
2018-06-11T12:24:25.491Z,17.40
2018-06-11T12:26:56.592Z,17.50
2018-06-11T12:29:27.803Z,17.40
2018-06-11T12:31:58.915Z,17.30
2018-06-11T12:34:29.935Z,17.30
2018-06-11T12:37:01.257Z,17.30
2018-06-11T12:39:32.169Z,17.30
2018-06-11T12:42:03.177Z,17.30
2018-06-11T12:44:34.541Z,17.30
2018-06-11T12:47:05.979Z,17.40
2018-06-11T12:49:36.716Z,17.50
2018-06-11T12:52:07.582Z,17.70
2018-06-11T12:54:38.720Z,17.90
2018-06-11T12:57:09.635Z,18.20
2018-06-11T12:59:40.922Z,18.50
2018-06-11T13:02:11.610Z,19.00
2018-06-11T13:04:42.435Z,19.50
2018-06-11T13:07:12.975Z,20.00
2018-06-11T13:09:43.598Z,20.40
2018-06-11T13:12:14.873Z,20.70
2018-06-11T13:14:45.718Z,21.00
2018-06-11T13:17:16.684Z,21.30
2018-06-11T13:19:47.672Z,21.60
2018-06-11T13:22:18.436Z,21.90
2018-06-11T13:24:49.030Z,22.00
2018-06-11T13:27:19.593Z,22.00
2018-06-11T13:29:50.153Z,21.80
2018-06-11T13:32:20.762Z,21.60
2018-06-11T13:34:51.291Z,21.40
2018-06-11T13:37:21.922Z,21.10
2018-06-11T13:39:52.534Z,20.80
2018-06-11T13:42:24.685Z,20.40
2018-06-11T13:44:55.579Z,20.10
2018-06-11T13:47:27.015Z,19.60
2018-06-11T13:49:57.897Z,19.30
2018-06-11T13:52:28.695Z,19.00
2018-06-11T13:54:59.247Z,18.70
2018-06-11T13:57:30.050Z,18.50
2018-06-11T14:00:00.510Z,18.40
2018-06-11T14:02:33.716Z,18.20
2018-06-11T14:05:04.995Z,18.10
2018-06-11T14:07:37.225Z,18.00
2018-06-11T14:10:14.676Z,18.00
2018-06-11T14:12:45.659Z,17.90
2018-06-11T14:15:16.609Z,17.80
2018-06-11T14:17:47.408Z,17.80
2018-06-11T14:20:18.386Z,17.80
2018-06-11T14:22:49.080Z,17.90
2018-06-11T14:25:19.839Z,18.00
2018-06-11T14:27:50.731Z,18.30
2018-06-11T14:30:21.796Z,18.60
2018-06-11T14:32:53.699Z,19.00
2018-06-11T14:35:25.884Z,19.30
2018-06-11T14:37:56.804Z,19.60
2018-06-11T14:40:28.127Z,19.70
2018-06-11T14:42:58.802Z,19.70
2018-06-11T14:45:34.977Z,19.70
2018-06-11T14:48:06.326Z,19.60
2018-06-11T14:50:38.528Z,19.50
2018-06-11T14:53:09.042Z,19.60
2018-06-11T14:55:39.800Z,19.60
2018-06-11T14:58:10.386Z,19.80
2018-06-11T15:00:41.875Z,19.60
2018-06-11T15:03:12.545Z,19.40
2018-06-11T15:05:43.517Z,19.20
2018-06-11T15:08:14.772Z,19.00
2018-06-11T15:10:46.002Z,18.70
2018-06-11T15:13:16.569Z,18.50
2018-06-11T17:57:11.815Z,15.40
2018-06-11T17:59:42.376Z,15.40
2018-06-11T18:02:12.657Z,15.40
2018-06-11T18:04:42.958Z,15.30
2018-06-11T18:07:13.643Z,15.30
2018-06-11T18:09:43.978Z,15.30
2018-06-11T18:12:14.390Z,15.30
2018-06-11T18:14:45.859Z,15.20
2018-06-11T18:17:16.062Z,15.20
2018-06-11T18:19:46.682Z,15.20
2018-06-11T18:22:16.990Z,15.20
2018-06-11T18:24:47.617Z,15.20
2018-06-11T18:27:17.901Z,15.20
2018-06-11T18:29:48.466Z,15.20
2018-06-11T18:32:18.723Z,15.30
2018-06-11T18:34:49.638Z,15.30
2018-06-11T18:37:19.939Z,15.30
2018-06-11T18:39:50.214Z,15.30
2018-06-11T18:42:20.587Z,15.30
2018-06-11T18:44:51.038Z,15.40
2018-06-11T18:47:21.550Z,15.40
2018-06-11T18:49:52.221Z,15.40
2018-06-11T18:52:22.784Z,15.40
2018-06-11T18:54:53.772Z,15.40
2018-06-11T18:57:24.946Z,15.40
2018-06-11T18:59:55.782Z,15.30
2018-06-11T19:02:27.197Z,15.30
2018-06-11T19:04:57.880Z,15.30
2018-06-11T19:07:28.548Z,15.30
2018-06-11T19:09:58.990Z,15.30
2018-06-11T19:12:30.087Z,15.30
2018-06-11T19:15:01.031Z,15.20
2018-06-11T19:17:31.588Z,15.20
2018-06-11T19:20:02.683Z,15.20
2018-06-11T19:22:33.196Z,15.20
2018-06-11T19:25:03.905Z,15.20
2018-06-11T19:27:35.051Z,15.20
2018-06-11T19:30:06.001Z,15.10
2018-06-11T19:32:36.641Z,15.10
2018-06-11T19:35:07.499Z,15.20
2018-06-11T19:37:38.131Z,15.10
2018-06-11T19:40:08.743Z,15.10
2018-06-11T19:42:39.624Z,15.10
2018-06-11T19:45:09.968Z,15.10
2018-06-11T19:47:40.380Z,15.10
2018-06-11T19:50:11.221Z,15.10
2018-06-11T19:52:42.236Z,15.10
2018-06-11T19:55:12.645Z,15.10
2018-06-11T19:57:43.568Z,15.10
2018-06-11T20:00:14.039Z,15.00
2018-06-11T20:02:44.777Z,15.00
2018-06-11T20:05:15.589Z,14.90
2018-06-11T20:07:46.400Z,14.90
2018-06-11T20:10:16.667Z,14.80
2018-06-11T20:12:47.399Z,14.80
2018-06-11T20:15:18.164Z,14.80
2018-06-11T20:17:48.975Z,14.80
2018-06-11T20:20:20.183Z,14.80
2018-06-11T20:22:50.561Z,14.80
2018-06-11T20:25:21.071Z,14.80
2018-06-11T20:27:51.874Z,14.80
2018-06-11T20:30:22.448Z,14.70
2018-06-11T20:32:52.754Z,14.60
2018-06-11T20:35:23.481Z,14.60
2018-06-11T20:37:53.870Z,14.60
2018-06-11T20:40:24.017Z,14.50
2018-06-11T20:42:54.935Z,14.50
2018-06-11T20:45:25.179Z,14.50
2018-06-11T20:47:55.415Z,14.50
2018-06-11T20:50:25.888Z,14.40
2018-06-11T20:52:56.056Z,14.40
2018-06-11T20:55:26.572Z,14.40
2018-06-11T20:57:56.763Z,14.30
2018-06-11T21:00:27.627Z,14.20
2018-06-11T21:02:57.775Z,14.10
2018-06-11T21:05:28.479Z,14.10
2018-06-11T21:07:58.557Z,14.00
2018-06-11T21:10:28.820Z,14.00
2018-06-11T21:12:59.504Z,14.00
2018-06-11T21:15:29.970Z,14.00
2018-06-11T21:18:00.416Z,14.00
2018-06-11T21:20:30.551Z,13.90
2018-06-11T21:23:01.161Z,13.90
2018-06-11T21:25:31.828Z,13.80
2018-06-11T21:28:02.425Z,13.80
2018-06-11T21:30:32.544Z,13.70
2018-06-11T21:33:02.917Z,13.70
2018-06-11T21:35:33.371Z,13.70
2018-06-11T21:38:03.542Z,13.60
2018-06-11T21:40:33.915Z,13.50
2018-06-11T21:43:04.432Z,13.50
2018-06-11T21:45:34.912Z,13.50
2018-06-11T21:48:05.192Z,13.40
2018-06-11T21:50:35.705Z,13.50
2018-06-11T21:53:05.890Z,13.50
2018-06-11T21:55:36.274Z,13.40
2018-06-11T21:58:06.793Z,13.40
2018-06-11T22:00:37.265Z,13.40
2018-06-11T22:03:07.609Z,13.40
2018-06-11T22:05:38.163Z,13.40
2018-06-11T22:08:08.953Z,13.50
2018-06-11T22:10:39.725Z,13.50
2018-06-11T22:13:09.896Z,13.60
2018-06-11T22:15:40.397Z,13.60
2018-06-11T22:18:10.818Z,13.70
2018-06-11T22:20:41.366Z,13.60
2018-06-11T22:23:11.672Z,13.60
2018-06-11T22:25:41.799Z,13.70
2018-06-11T22:28:11.871Z,13.70
2018-06-11T22:30:42.137Z,13.70
2018-06-11T22:33:12.731Z,13.60
2018-06-11T22:35:42.974Z,13.60
2018-06-11T22:38:12.964Z,13.60
2018-06-11T22:40:43.094Z,13.50
2018-06-11T22:43:13.164Z,13.50
2018-06-11T22:45:43.593Z,13.50
2018-06-11T22:48:13.987Z,13.40
2018-06-11T22:50:44.254Z,13.40
2018-06-11T22:53:14.350Z,13.40
2018-06-11T22:55:44.942Z,13.30
2018-06-11T22:58:15.443Z,13.20
2018-06-11T23:00:45.987Z,13.20
2018-06-11T23:03:17.142Z,13.10
2018-06-11T23:05:47.367Z,13.10
2018-06-11T23:08:17.715Z,13.20
2018-06-11T23:10:48.292Z,13.20
2018-06-11T23:13:18.746Z,13.30
2018-06-11T23:15:48.997Z,13.30
2018-06-11T23:18:19.776Z,13.30
2018-06-11T23:20:50.052Z,13.40
2018-06-11T23:23:20.377Z,13.40
2018-06-11T23:25:50.738Z,13.50
2018-06-11T23:28:21.343Z,13.50
2018-06-11T23:30:51.439Z,13.50
2018-06-11T23:33:21.603Z,13.50
2018-06-11T23:35:51.925Z,13.50
2018-06-11T23:38:21.953Z,13.60
2018-06-11T23:40:52.028Z,13.50
2018-06-11T23:43:22.789Z,13.60
2018-06-11T23:45:53.364Z,13.60
2018-06-11T23:48:23.495Z,13.60
2018-06-11T23:50:53.577Z,13.60
2018-06-11T23:53:23.944Z,13.70
2018-06-11T23:55:54.301Z,13.70
2018-06-11T23:58:24.449Z,13.70
